TAF Text Data
IDs:
Format:
Raw Decoded Include METAR

Data at: 1340 UTC 27 Nov 2021

KCAR 271120Z 2712/2812 31012G20KT 6SM -SN SCT015 OVC025
  TEMPO 2712/2715 2SM -SN OVC015
  FM271500 29013G22KT 2SM -SHSN BLSN OVC012
  FM271800 27015G24KT 3SM -SN BLSN OVC015
  FM272100 26013G21KT 6SM BLSN OVC025
  FM280200 27010KT P6SM OVC040